Time;durP1;ratioP1;P1;durP2;ratioP2;P2;SDS_P1;SDS_P2;PMS_P1;PMS_P2;Temp;Humidity;BMP_temperature;BMP_pressure;BME280_temperature;BME280_humidity;BME280_pressure;Samples;Min_cycle;Max_cycle;Signal;HPM_P1;HPM_P2
2023/10/28 00:02:16;;;;;;;8.00;4.37;;;;;;;;;;5028964;28;20465;-78
2023/10/28 00:05:01;;;;;;;11.53;4.63;;;;;;;;;;5031838;28;20586;-78
2023/10/28 00:07:47;;;;;;;6.10;4.03;;;;;;;;;;5025541;28;20465;-78
2023/10/28 00:10:33;;;;;;;8.03;4.50;;;;;;;;;;5015939;28;20437;-78
2023/10/28 00:13:18;;;;;;;6.17;3.93;;;;;;;;;;5016600;28;20469;-78
2023/10/28 00:16:05;;;;;;;10.40;4.57;;;;;;;;;;5031919;28;20437;-77
2023/10/28 00:18:50;;;;;;;8.43;4.70;;;;;;;;;;5013873;28;20491;-78
2023/10/28 00:21:35;;;;;;;5.63;3.93;;;;;;;;;;5020295;28;20795;-77
2023/10/28 00:24:22;;;;;;;11.50;4.47;;;;;;;;;;5019115;28;20922;-77
2023/10/28 00:27:07;;;;;;;16.20;4.77;;;;;;;;;;5035751;28;20437;-79
2023/10/28 00:29:52;;;;;;;7.23;4.23;;;;;;;;;;5013694;28;20572;-77
2023/10/28 00:32:38;;;;;;;8.83;4.23;;;;;;;;;;5019874;28;20441;-77
2023/10/28 00:35:22;;;;;;;5.37;4.87;;;;;;;;;;5018086;28;20592;-77
2023/10/28 00:38:08;;;;;;;7.10;4.43;;;;;;;;;;5035052;28;20445;-77
2023/10/28 00:40:56;;;;;;;6.40;4.30;;;;;;;;;;5013106;28;20579;-77
2023/10/28 00:43:40;;;;;;;7.47;5.43;;;;;;;;;;5032150;28;20472;-77
2023/10/28 00:46:26;;;;;;;6.83;4.83;;;;;;;;;;5018165;28;20481;-78
2023/10/28 00:49:12;;;;;;;7.53;4.53;;;;;;;;;;5019578;28;20450;-78
2023/10/28 00:51:58;;;;;;;9.30;4.10;;;;;;;;;;5029028;28;20453;-78
2023/10/28 00:54:43;;;;;;;13.97;5.10;;;;;;;;;;5021521;28;20462;-79
2023/10/28 00:57:32;;;;;;;5.63;5.03;;;;;;;;;;5034161;28;20430;-80
2023/10/28 01:00:17;;;;;;;11.63;5.37;;;;;;;;;;5019801;28;20471;-78
2023/10/28 01:03:03;;;;;;;7.93;4.67;;;;;;;;;;5019263;28;20887;-77
2023/10/28 01:05:48;;;;;;;6.03;5.27;;;;;;;;;;5020432;28;20895;-77
2023/10/28 01:08:34;;;;;;;7.63;4.83;;;;;;;;;;5035752;28;20862;-77
2023/10/28 01:11:21;;;;;;;6.87;4.70;;;;;;;;;;5035538;28;20812;-77
2023/10/28 01:14:07;;;;;;;8.53;4.50;;;;;;;;;;5035395;28;21108;-78
2023/10/28 01:16:55;;;;;;;6.43;5.07;;;;;;;;;;5020318;28;20777;-78
2023/10/28 01:19:40;;;;;;;9.90;4.77;;;;;;;;;;5035111;28;20861;-78
2023/10/28 01:22:27;;;;;;;7.33;5.20;;;;;;;;;;5034732;28;20950;-78
2023/10/28 01:25:12;;;;;;;7.63;4.70;;;;;;;;;;5035065;28;20901;-78
2023/10/28 01:27:58;;;;;;;8.30;4.90;;;;;;;;;;5034312;28;20797;-78
2023/10/28 01:30:44;;;;;;;9.73;4.87;;;;;;;;;;5030702;28;20815;-77
2023/10/28 01:33:29;;;;;;;7.57;4.60;;;;;;;;;;5032765;28;20978;-78
2023/10/28 01:36:15;;;;;;;7.10;4.57;;;;;;;;;;5019880;28;20807;-77
2023/10/28 01:39:02;;;;;;;6.43;4.70;;;;;;;;;;5029433;28;20811;-78
2023/10/28 01:41:47;;;;;;;9.13;4.73;;;;;;;;;;5031549;28;20853;-77
2023/10/28 01:44:34;;;;;;;5.60;4.10;;;;;;;;;;5018676;28;20812;-78
2023/10/28 01:47:20;;;;;;;8.47;4.10;;;;;;;;;;5020063;28;20658;-77
2023/10/28 01:50:07;;;;;;;5.97;3.80;;;;;;;;;;5030417;28;20800;-77
2023/10/28 01:52:53;;;;;;;6.90;3.90;;;;;;;;;;5031621;28;20922;-77
2023/10/28 01:55:39;;;;;;;8.77;4.80;;;;;;;;;;5034153;28;20788;-77
2023/10/28 01:58:25;;;;;;;12.97;4.43;;;;;;;;;;5020526;28;20793;-78
2023/10/28 02:01:10;;;;;;;12.63;4.70;;;;;;;;;;5015782;28;20465;-78
2023/10/28 02:03:56;;;;;;;6.87;4.23;;;;;;;;;;5019988;28;20470;-77
2023/10/28 02:06:41;;;;;;;7.03;4.43;;;;;;;;;;5034521;28;20819;-78
2023/10/28 02:09:27;;;;;;;8.07;4.07;;;;;;;;;;5020535;28;20804;-77
2023/10/28 02:12:14;;;;;;;11.10;3.77;;;;;;;;;;5030535;28;20804;-78
2023/10/28 02:14:59;;;;;;;6.37;3.90;;;;;;;;;;5034076;28;21074;-78
2023/10/28 02:17:46;;;;;;;4.47;3.60;;;;;;;;;;5019867;28;20906;-78
2023/10/28 02:20:33;;;;;;;7.90;4.67;;;;;;;;;;5020087;28;20919;-78
2023/10/28 02:23:18;;;;;;;6.30;4.00;;;;;;;;;;5019426;28;20839;-77
2023/10/28 02:26:03;;;;;;;7.97;4.10;;;;;;;;;;5019652;28;20842;-78
2023/10/28 02:28:50;;;;;;;8.50;5.47;;;;;;;;;;5034251;28;20808;-77
2023/10/28 02:31:35;;;;;;;7.10;5.80;;;;;;;;;;5018924;28;20858;-78
2023/10/28 02:34:20;;;;;;;10.40;5.63;;;;;;;;;;5030604;28;20867;-78
2023/10/28 02:37:06;;;;;;;8.73;6.07;;;;;;;;;;5014094;28;20955;-78
2023/10/28 02:39:51;;;;;;;7.00;6.27;;;;;;;;;;5028916;28;20846;-78
2023/10/28 02:42:36;;;;;;;7.87;5.80;;;;;;;;;;5032826;28;20816;-78
2023/10/28 02:45:23;;;;;;;10.20;6.60;;;;;;;;;;5033799;28;20875;-77
2023/10/28 02:48:11;;;;;;;6.47;5.83;;;;;;;;;;5029105;28;20900;-78
2023/10/28 02:50:56;;;;;;;7.07;5.70;;;;;;;;;;5018423;28;20919;-78
2023/10/28 02:53:41;;;;;;;8.00;5.90;;;;;;;;;;5031985;28;20942;-78
2023/10/28 02:56:26;;;;;;;8.83;6.07;;;;;;;;;;5017346;28;20812;-77
2023/10/28 02:59:17;;;;;;;8.60;6.10;;;;;;;;;;5033054;28;20836;-77
2023/10/28 03:02:03;;;;;;;7.33;5.40;;;;;;;;;;5025573;28;20820;-77
2023/10/28 03:04:48;;;;;;;11.13;6.10;;;;;;;;;;5017486;28;20844;-78
2023/10/28 03:07:33;;;;;;;8.73;5.97;;;;;;;;;;5029689;28;20808;-78
2023/10/28 03:10:18;;;;;;;8.90;5.90;;;;;;;;;;5032481;28;20446;-78
2023/10/28 03:13:04;;;;;;;8.57;5.93;;;;;;;;;;5032707;28;20815;-78
2023/10/28 03:15:49;;;;;;;8.70;6.10;;;;;;;;;;5017131;28;20808;-78
2023/10/28 03:18:35;;;;;;;8.20;6.00;;;;;;;;;;5024440;28;20804;-78
2023/10/28 03:21:21;;;;;;;15.47;7.47;;;;;;;;;;5016033;28;20454;-78
2023/10/28 03:24:08;;;;;;;8.67;5.80;;;;;;;;;;5016804;28;20863;-77
2023/10/28 03:26:53;;;;;;;5.43;4.80;;;;;;;;;;5031937;28;20501;-77
2023/10/28 03:29:40;;;;;;;8.23;5.27;;;;;;;;;;5031629;28;20843;-78
2023/10/28 03:32:25;;;;;;;7.40;5.10;;;;;;;;;;5028249;28;20807;-78
2023/10/28 03:35:12;;;;;;;6.97;4.60;;;;;;;;;;5013664;28;20851;-78
2023/10/28 03:37:57;;;;;;;6.27;4.80;;;;;;;;;;5017241;28;20796;-78
2023/10/28 03:40:43;;;;;;;8.10;4.07;;;;;;;;;;5016404;28;20784;-78
2023/10/28 03:43:28;;;;;;;6.60;5.07;;;;;;;;;;5028205;28;20934;-77
2023/10/28 03:46:16;;;;;;;6.07;4.63;;;;;;;;;;5031347;28;20522;-77
2023/10/28 03:49:01;;;;;;;4.93;4.40;;;;;;;;;;5031982;28;21080;-77
2023/10/28 03:51:48;;;;;;;8.47;4.93;;;;;;;;;;5032624;28;20930;-76
2023/10/28 03:54:33;;;;;;;8.23;4.90;;;;;;;;;;5035009;28;20823;-77
2023/10/28 03:57:18;;;;;;;7.30;4.97;;;;;;;;;;5035255;28;20816;-77
2023/10/28 04:00:04;;;;;;;7.50;4.40;;;;;;;;;;5029531;28;20842;-77
2023/10/28 04:02:57;;;;;;;6.10;5.20;;;;;;;;;;5031713;28;20827;-77
2023/10/28 04:05:43;;;;;;;6.43;5.33;;;;;;;;;;5092841;22;20472;-81
2023/10/28 04:08:30;;;;;;;8.77;4.70;;;;;;;;;;5081124;28;20814;-80
2023/10/28 04:11:15;;;;;;;5.40;4.60;;;;;;;;;;5063245;28;20848;-80
2023/10/28 04:14:00;;;;;;;6.13;4.23;;;;;;;;;;5073323;28;20845;-81
2023/10/28 04:16:45;;;;;;;7.60;4.53;;;;;;;;;;5067775;28;20848;-80
2023/10/28 04:19:31;;;;;;;4.87;4.47;;;;;;;;;;5056086;28;20821;-80
2023/10/28 04:22:16;;;;;;;5.60;3.70;;;;;;;;;;5062217;28;20433;-81
2023/10/28 04:25:03;;;;;;;7.03;3.90;;;;;;;;;;5058931;28;20861;-81
2023/10/28 04:27:50;;;;;;;6.53;4.07;;;;;;;;;;5062279;28;20817;-81
2023/10/28 04:30:36;;;;;;;7.00;4.70;;;;;;;;;;5058557;28;20853;-81
2023/10/28 04:33:21;;;;;;;5.63;3.60;;;;;;;;;;5064372;28;20443;-80
2023/10/28 04:36:09;;;;;;;6.27;3.40;;;;;;;;;;5061160;28;20475;-82
2023/10/28 04:38:54;;;;;;;5.00;3.37;;;;;;;;;;5074939;28;20809;-81
2023/10/28 04:41:40;;;;;;;3.87;3.00;;;;;;;;;;5057122;28;20446;-81
2023/10/28 04:44:25;;;;;;;6.13;3.30;;;;;;;;;;5070100;28;20907;-81
2023/10/28 04:47:11;;;;;;;3.43;3.13;;;;;;;;;;5069910;28;20819;-81
2023/10/28 04:49:57;;;;;;;6.17;3.20;;;;;;;;;;5067802;28;20787;-81
2023/10/28 04:52:43;;;;;;;7.70;3.33;;;;;;;;;;5060968;28;20445;-81
2023/10/28 04:55:29;;;;;;;3.33;3.13;;;;;;;;;;5069543;28;20837;-80
2023/10/28 04:58:15;;;;;;;4.53;3.30;;;;;;;;;;5051004;28;20839;-80
2023/10/28 05:01:01;;;;;;;4.10;3.23;;;;;;;;;;5068786;28;20873;-80
2023/10/28 05:03:46;;;;;;;6.33;3.60;;;;;;;;;;5055636;28;20819;-81
2023/10/28 05:06:32;;;;;;;5.00;3.33;;;;;;;;;;5059754;28;20448;-80
2023/10/28 05:09:20;;;;;;;9.70;3.90;;;;;;;;;;5066640;28;20440;-80
2023/10/28 05:12:05;;;;;;;3.87;3.27;;;;;;;;;;5062947;28;21704;-80
2023/10/28 05:14:52;;;;;;;5.23;2.90;;;;;;;;;;5070373;28;20453;-80
2023/10/28 05:17:37;;;;;;;3.67;3.37;;;;;;;;;;5053541;28;20869;-80
2023/10/28 05:20:22;;;;;;;3.93;3.10;;;;;;;;;;5049281;28;20857;-80
2023/10/28 05:23:07;;;;;;;3.10;2.83;;;;;;;;;;5056125;28;20444;-80
2023/10/28 05:25:53;;;;;;;4.00;3.17;;;;;;;;;;5063055;28;20873;-80
2023/10/28 05:28:39;;;;;;;3.20;3.00;;;;;;;;;;5060493;28;20891;-80
2023/10/28 05:31:26;;;;;;;3.53;3.30;;;;;;;;;;5068751;28;20861;-80
2023/10/28 05:34:12;;;;;;;4.40;2.80;;;;;;;;;;5069715;28;20845;-80
2023/10/28 05:36:57;;;;;;;3.17;2.80;;;;;;;;;;5060131;28;20702;-80
2023/10/28 05:39:42;;;;;;;3.57;2.80;;;;;;;;;;5056848;28;20973;-81
2023/10/28 05:42:27;;;;;;;3.87;2.63;;;;;;;;;;5060824;28;20441;-80
2023/10/28 05:45:14;;;;;;;3.63;2.60;;;;;;;;;;5058280;28;20957;-80
2023/10/28 05:48:00;;;;;;;5.83;3.20;;;;;;;;;;5066177;28;20464;-81
2023/10/28 05:50:46;;;;;;;2.97;2.23;;;;;;;;;;5047298;28;20805;-80
2023/10/28 05:53:33;;;;;;;3.10;2.20;;;;;;;;;;5061878;28;20452;-79
2023/10/28 05:56:21;;;;;;;6.83;2.10;;;;;;;;;;5055850;28;20830;-80
2023/10/28 05:59:08;;;;;;;5.80;2.20;;;;;;;;;;5068493;28;20784;-81
2023/10/28 06:01:53;;;;;;;3.30;1.93;;;;;;;;;;5054809;28;20796;-81
2023/10/28 06:04:41;;;;;;;4.97;1.90;;;;;;;;;;5043200;28;20838;-80
2023/10/28 06:07:27;;;;;;;2.33;1.90;;;;;;;;;;5058877;28;20802;-81
2023/10/28 06:10:12;;;;;;;3.30;1.90;;;;;;;;;;5043184;28;20452;-82
2023/10/28 06:12:57;;;;;;;3.10;1.90;;;;;;;;;;5061278;28;20525;-79
2023/10/28 06:15:44;;;;;;;2.33;1.70;;;;;;;;;;5061579;28;20561;-79
2023/10/28 06:18:29;;;;;;;3.63;2.30;;;;;;;;;;5065323;28;20802;-79
2023/10/28 06:21:16;;;;;;;2.60;2.40;;;;;;;;;;5057613;28;20823;-81
2023/10/28 06:24:02;;;;;;;2.00;1.67;;;;;;;;;;5062712;28;20457;-80
2023/10/28 06:26:48;;;;;;;2.33;1.90;;;;;;;;;;5067249;28;20812;-79
2023/10/28 06:29:33;;;;;;;2.70;1.83;;;;;;;;;;5057141;28;20811;-80
2023/10/28 06:32:18;;;;;;;3.50;2.00;;;;;;;;;;5074353;28;20432;-80
2023/10/28 06:35:03;;;;;;;5.73;1.97;;;;;;;;;;5062629;28;20453;-81
2023/10/28 06:37:50;;;;;;;3.77;2.00;;;;;;;;;;5062282;28;20517;-81
2023/10/28 06:40:37;;;;;;;3.73;2.20;;;;;;;;;;5067651;28;20452;-81
2023/10/28 06:43:23;;;;;;;2.23;2.07;;;;;;;;;;5056375;28;20821;-81
2023/10/28 06:46:09;;;;;;;1.83;1.63;;;;;;;;;;5060840;28;20855;-80
2023/10/28 06:48:54;;;;;;;3.20;1.83;;;;;;;;;;5058994;28;20846;-79
2023/10/28 06:51:39;;;;;;;2.30;1.80;;;;;;;;;;5056503;28;20849;-81
2023/10/28 06:54:26;;;;;;;1.90;1.80;;;;;;;;;;5064858;28;20949;-80
2023/10/28 06:57:11;;;;;;;2.30;1.83;;;;;;;;;;5048934;28;20444;-81
2023/10/28 06:59:56;;;;;;;3.03;1.60;;;;;;;;;;5062444;28;20802;-81
2023/10/28 07:02:42;;;;;;;2.63;1.90;;;;;;;;;;5058861;28;20837;-79
2023/10/28 07:05:27;;;;;;;1.80;1.60;;;;;;;;;;5059633;28;20889;-80
2023/10/28 07:08:12;;;;;;;2.10;1.90;;;;;;;;;;5065499;28;20798;-79
2023/10/28 07:10:59;;;;;;;3.30;1.80;;;;;;;;;;5055964;28;20817;-79
2023/10/28 07:13:45;;;;;;;1.83;1.43;;;;;;;;;;5056502;28;20833;-80
2023/10/28 07:16:31;;;;;;;1.30;1.20;;;;;;;;;;5056047;28;20918;-79
2023/10/28 07:19:16;;;;;;;2.73;1.60;;;;;;;;;;5064414;28;20787;-80
2023/10/28 07:22:01;;;;;;;2.10;1.43;;;;;;;;;;5058128;28;20799;-79
2023/10/28 07:24:46;;;;;;;3.83;1.53;;;;;;;;;;5074413;28;20501;-78
2023/10/28 07:27:33;;;;;;;2.77;1.50;;;;;;;;;;5067748;28;20433;-78
2023/10/28 07:30:18;;;;;;;3.10;1.40;;;;;;;;;;5067459;28;20787;-80
2023/10/28 07:33:04;;;;;;;2.37;1.30;;;;;;;;;;5053019;28;20805;-78
2023/10/28 07:35:50;;;;;;;1.57;1.47;;;;;;;;;;5066719;28;20457;-79
2023/10/28 07:38:35;;;;;;;3.87;1.47;;;;;;;;;;5041724;28;20865;-80
2023/10/28 07:41:20;;;;;;;2.00;1.70;;;;;;;;;;5038800;28;20858;-78
2023/10/28 07:44:07;;;;;;;3.10;2.23;;;;;;;;;;5062887;28;20790;-78
2023/10/28 07:46:52;;;;;;;3.17;2.67;;;;;;;;;;5054067;28;20416;-78
2023/10/28 07:49:37;;;;;;;2.90;2.70;;;;;;;;;;5074993;28;20436;-78
2023/10/28 07:52:22;;;;;;;2.07;1.87;;;;;;;;;;5049558;28;20464;-78
2023/10/28 07:55:08;;;;;;;3.20;2.30;;;;;;;;;;5063457;28;20449;-78
2023/10/28 07:57:54;;;;;;;3.53;2.07;;;;;;;;;;5054954;28;20842;-79
2023/10/28 08:00:40;;;;;;;2.00;1.80;;;;;;;;;;5041123;28;20846;-79
2023/10/28 08:03:25;;;;;;;2.67;2.13;;;;;;;;;;5069234;28;20566;-79
2023/10/28 08:06:11;;;;;;;7.73;3.10;;;;;;;;;;5071416;28;20464;-80
2023/10/28 08:08:56;;;;;;;3.13;1.90;;;;;;;;;;5073533;28;20779;-81
2023/10/28 08:11:42;;;;;;;2.27;2.10;;;;;;;;;;5062739;28;20854;-81
2023/10/28 08:14:28;;;;;;;2.10;1.87;;;;;;;;;;5074381;28;20806;-82
2023/10/28 08:17:16;;;;;;;4.30;3.60;;;;;;;;;;5064881;28;20448;-82
2023/10/28 08:20:01;;;;;;;3.07;2.57;;;;;;;;;;5069979;28;20770;-80
2023/10/28 08:22:47;;;;;;;4.40;2.90;;;;;;;;;;5055424;28;20793;-79
2023/10/28 08:25:33;;;;;;;3.80;3.30;;;;;;;;;;5063290;28;20818;-79
2023/10/28 08:28:18;;;;;;;2.07;1.80;;;;;;;;;;5062132;28;22086;-78
2023/10/28 08:31:07;;;;;;;2.23;1.90;;;;;;;;;;5051852;28;20757;-80
2023/10/28 08:33:54;;;;;;;5.03;2.20;;;;;;;;;;5053663;28;20795;-79
2023/10/28 08:36:39;;;;;;;3.97;1.50;;;;;;;;;;5051900;28;20831;-80
2023/10/28 08:39:25;;;;;;;2.27;1.83;;;;;;;;;;5071114;28;20866;-80
2023/10/28 08:42:11;;;;;;;2.13;1.60;;;;;;;;;;5056615;28;20444;-80
2023/10/28 08:44:58;;;;;;;2.33;1.63;;;;;;;;;;5061161;28;21145;-80
2023/10/28 08:47:44;;;;;;;3.40;2.93;;;;;;;;;;5066971;28;20429;-79
2023/10/28 08:50:33;;;;;;;3.23;2.93;;;;;;;;;;5035132;28;20917;-79
2023/10/28 08:53:19;;;;;;;4.23;1.73;;;;;;;;;;5063055;28;20802;-78
2023/10/28 08:56:05;;;;;;;3.70;1.60;;;;;;;;;;5056227;28;20896;-78
2023/10/28 08:58:51;;;;;;;1.70;1.60;;;;;;;;;;5063891;28;20825;-80
2023/10/28 09:01:37;;;;;;;1.80;1.70;;;;;;;;;;5069802;28;20990;-80
2023/10/28 09:04:22;;;;;;;1.80;1.70;;;;;;;;;;5054198;28;20937;-80
2023/10/28 09:07:08;;;;;;;3.20;1.50;;;;;;;;;;5056521;28;20837;-81
2023/10/28 09:10:03;;;;;;;3.50;1.70;;;;;;;;;;5057390;28;20460;-81
2023/10/28 09:12:50;;;;;;;3.37;1.40;;;;;;;;;;5080283;28;20873;-81
2023/10/28 09:15:35;;;;;;;1.70;1.40;;;;;;;;;;5073332;28;20897;-82
2023/10/28 09:18:20;;;;;;;2.80;1.50;;;;;;;;;;5062781;28;20449;-81
2023/10/28 09:21:08;;;;;;;1.93;1.50;;;;;;;;;;5059305;28;20436;-81
2023/10/28 09:23:54;;;;;;;2.27;1.27;;;;;;;;;;5063557;28;20826;-81
2023/10/28 09:26:40;;;;;;;2.10;1.90;;;;;;;;;;5066600;28;20464;-81
2023/10/28 09:29:25;;;;;;;1.50;1.40;;;;;;;;;;5061883;28;20837;-81
2023/10/28 09:32:11;;;;;;;1.73;1.63;;;;;;;;;;5060899;28;20913;-81
2023/10/28 09:34:57;;;;;;;3.13;1.80;;;;;;;;;;5060885;28;20810;-81
2023/10/28 09:37:44;;;;;;;1.80;1.70;;;;;;;;;;5060405;28;20436;-81
2023/10/28 09:40:30;;;;;;;2.77;1.23;;;;;;;;;;5044088;28;20793;-81
2023/10/28 09:43:16;;;;;;;3.57;1.50;;;;;;;;;;5070120;28;20781;-82
2023/10/28 09:46:02;;;;;;;4.00;1.70;;;;;;;;;;5054564;28;20854;-81
2023/10/28 09:48:48;;;;;;;2.43;1.80;;;;;;;;;;5063637;28;20809;-81
2023/10/28 09:51:33;;;;;;;2.17;1.67;;;;;;;;;;5067964;28;20425;-81
2023/10/28 09:54:22;;;;;;;3.40;1.70;;;;;;;;;;5070132;28;20864;-81
2023/10/28 09:57:10;;;;;;;1.47;1.37;;;;;;;;;;5065656;28;20772;-81
2023/10/28 09:59:56;;;;;;;3.40;1.67;;;;;;;;;;5060230;28;20429;-79
2023/10/28 10:02:46;;;;;;;2.50;1.80;;;;;;;;;;5061956;28;20437;-81
2023/10/28 10:05:40;;;;;;;5.53;1.60;;;;;;;;;;5059856;28;20461;-81
2023/10/28 10:08:25;;;;;;;2.80;2.10;;;;;;;;;;5076396;28;20853;-81
2023/10/28 10:11:11;;;;;;;1.70;1.60;;;;;;;;;;5078108;28;20795;-81
2023/10/28 10:14:08;;;;;;;5.43;1.70;;;;;;;;;;5067429;28;20807;-81
2023/10/28 10:16:55;;;;;;;2.10;1.50;;;;;;;;;;5067460;28;21093;-81
2023/10/28 10:19:40;;;;;;;2.43;1.53;;;;;;;;;;5079266;28;20805;-81
2023/10/28 10:22:28;;;;;;;3.37;2.03;;;;;;;;;;5076888;28;20844;-81
2023/10/28 10:25:14;;;;;;;2.10;1.53;;;;;;;;;;5058959;28;20895;-81
2023/10/28 10:28:06;;;;;;;3.83;1.50;;;;;;;;;;5044024;28;20432;-81
2023/10/28 10:30:52;;;;;;;2.40;1.63;;;;;;;;;;5075657;28;20848;-80
2023/10/28 10:33:38;;;;;;;2.77;1.40;;;;;;;;;;5063737;28;20920;-80
2023/10/28 10:36:27;;;;;;;1.67;1.40;;;;;;;;;;5068933;28;20460;-81
2023/10/28 10:39:14;;;;;;;3.50;1.50;;;;;;;;;;5058441;28;20464;-80
2023/10/28 10:42:03;;;;;;;4.27;1.87;;;;;;;;;;5058718;28;20811;-81
2023/10/28 10:44:48;;;;;;;3.40;1.73;;;;;;;;;;5077925;28;20826;-80
2023/10/28 10:47:35;;;;;;;2.00;1.37;;;;;;;;;;5077403;28;20429;-82
2023/10/28 10:50:21;;;;;;;1.60;1.30;;;;;;;;;;5077855;28;20797;-79
2023/10/28 10:53:06;;;;;;;4.53;1.70;;;;;;;;;;5078210;28;20915;-80
2023/10/28 10:55:52;;;;;;;3.50;1.70;;;;;;;;;;5062498;28;20507;-80
2023/10/28 10:58:38;;;;;;;5.33;2.00;;;;;;;;;;5057386;28;20793;-81
2023/10/28 11:01:25;;;;;;;3.80;1.70;;;;;;;;;;5069140;28;20443;-80
2023/10/28 11:04:11;;;;;;;2.30;2.10;;;;;;;;;;5063523;28;20437;-80
2023/10/28 11:06:57;;;;;;;3.27;2.23;;;;;;;;;;5072100;28;20475;-80
2023/10/28 11:09:42;;;;;;;9.47;4.20;;;;;;;;;;5071378;28;20779;-80
2023/10/28 11:12:27;;;;;;;3.60;3.03;;;;;;;;;;5072699;28;21082;-80
2023/10/28 11:15:13;;;;;;;4.70;2.60;;;;;;;;;;5077094;28;20817;-80
2023/10/28 11:17:59;;;;;;;2.73;1.63;;;;;;;;;;5058017;28;20822;-82
2023/10/28 11:20:47;;;;;;;3.90;3.00;;;;;;;;;;5055128;28;20879;-81
2023/10/28 11:23:32;;;;;;;3.80;2.53;;;;;;;;;;5051947;28;20890;-81
2023/10/28 11:26:19;;;;;;;4.70;1.63;;;;;;;;;;5078788;28;20842;-80
2023/10/28 11:29:04;;;;;;;7.63;2.20;;;;;;;;;;5077314;28;20798;-80
2023/10/28 11:31:50;;;;;;;3.93;1.70;;;;;;;;;;5051019;28;20446;-80
2023/10/28 11:34:36;;;;;;;5.47;1.90;;;;;;;;;;5042919;28;20812;-79
2023/10/28 11:37:23;;;;;;;6.87;2.17;;;;;;;;;;5050080;28;20788;-77
2023/10/28 11:40:09;;;;;;;4.27;1.77;;;;;;;;;;5074601;28;20435;-82
2023/10/28 11:42:54;;;;;;;4.00;1.87;;;;;;;;;;5062329;28;20793;-79
2023/10/28 11:45:39;;;;;;;5.20;1.87;;;;;;;;;;5076148;28;20464;-80
2023/10/28 11:48:24;;;;;;;5.97;2.47;;;;;;;;;;5042679;28;20842;-80
2023/10/28 11:51:10;;;;;;;5.57;2.77;;;;;;;;;;5076359;28;20850;-80
2023/10/28 11:53:56;;;;;;;4.13;2.50;;;;;;;;;;5071534;28;20815;-81
2023/10/28 11:56:42;;;;;;;5.30;2.13;;;;;;;;;;5061456;28;20837;-80
2023/10/28 11:59:27;;;;;;;4.10;2.30;;;;;;;;;;5069666;28;20795;-78
2023/10/28 12:02:13;;;;;;;5.27;2.27;;;;;;;;;;5056139;28;20772;-78
2023/10/28 12:04:59;;;;;;;8.03;4.20;;;;;;;;;;5056311;28;20811;-80
2023/10/28 12:07:44;;;;;;;5.27;2.80;;;;;;;;;;5070919;28;20822;-80
2023/10/28 12:10:34;;;;;;;7.03;3.23;;;;;;;;;;5041396;28;20433;-79
2023/10/28 12:13:20;;;;;;;4.50;1.87;;;;;;;;;;5074690;28;20789;-79
2023/10/28 12:16:06;;;;;;;3.80;2.20;;;;;;;;;;5054154;28;20456;-79
2023/10/28 12:18:51;;;;;;;5.53;2.20;;;;;;;;;;5066111;28;20868;-79
2023/10/28 12:21:40;;;;;;;2.80;1.77;;;;;;;;;;5079536;28;20432;-80
2023/10/28 12:24:25;;;;;;;6.40;2.17;;;;;;;;;;5062565;28;20885;-81
2023/10/28 12:27:13;;;;;;;4.33;2.03;;;;;;;;;;5054905;28;20807;-78
2023/10/28 12:29:59;;;;;;;4.40;2.50;;;;;;;;;;5062775;28;20857;-79
2023/10/28 12:32:44;;;;;;;5.97;2.50;;;;;;;;;;5057795;28;20767;-80
2023/10/28 12:35:29;;;;;;;7.30;2.23;;;;;;;;;;5070559;28;20512;-79
2023/10/28 12:38:14;;;;;;;3.33;1.70;;;;;;;;;;5061903;28;20838;-81
2023/10/28 12:40:59;;;;;;;5.60;1.73;;;;;;;;;;5062180;28;20772;-82
2023/10/28 12:43:47;;;;;;;4.27;2.03;;;;;;;;;;5052590;28;20805;-79
2023/10/28 12:46:31;;;;;;;2.47;2.00;;;;;;;;;;5074032;28;21002;-78
2023/10/28 12:49:17;;;;;;;3.07;1.60;;;;;;;;;;5068001;28;20789;-79
2023/10/28 12:52:02;;;;;;;2.67;1.20;;;;;;;;;;5059130;28;20822;-78
2023/10/28 12:54:48;;;;;;;5.67;1.63;;;;;;;;;;5073709;28;20794;-78
2023/10/28 12:57:33;;;;;;;3.00;1.80;;;;;;;;;;5077929;28;20836;-81
2023/10/28 13:00:20;;;;;;;4.30;1.37;;;;;;;;;;5077450;28;21055;-80
2023/10/28 13:03:05;;;;;;;3.43;1.90;;;;;;;;;;5064852;28;20444;-79
2023/10/28 13:05:50;;;;;;;3.87;1.70;;;;;;;;;;5056449;28;20850;-78
2023/10/28 13:08:35;;;;;;;5.53;1.40;;;;;;;;;;5057800;28;20428;-79
2023/10/28 13:11:20;;;;;;;3.90;1.60;;;;;;;;;;5046003;28;20436;-78
2023/10/28 13:14:05;;;;;;;2.60;1.67;;;;;;;;;;5058168;28;20794;-78
2023/10/28 13:16:52;;;;;;;3.43;1.43;;;;;;;;;;5062158;28;20791;-80
2023/10/28 13:19:37;;;;;;;3.50;1.70;;;;;;;;;;5063988;28;20856;-80
2023/10/28 13:22:23;;;;;;;4.87;4.37;;;;;;;;;;5078512;28;20850;-79
2023/10/28 13:25:08;;;;;;;3.53;1.70;;;;;;;;;;5077306;28;20873;-80
2023/10/28 13:27:54;;;;;;;7.20;3.70;;;;;;;;;;5069735;28;20920;-79
2023/10/28 13:30:39;;;;;;;3.57;1.10;;;;;;;;;;5069708;28;20428;-78
2023/10/28 13:33:25;;;;;;;3.40;1.30;;;;;;;;;;5073777;28;20816;-80
2023/10/28 13:36:11;;;;;;;2.27;1.00;;;;;;;;;;5059097;28;20448;-79
2023/10/28 13:38:56;;;;;;;2.33;1.30;;;;;;;;;;5056572;28;20814;-80
2023/10/28 13:41:42;;;;;;;4.90;2.00;;;;;;;;;;5049488;28;20831;-80
2023/10/28 13:44:27;;;;;;;3.97;1.37;;;;;;;;;;5057466;28;20830;-80
2023/10/28 13:47:12;;;;;;;2.40;1.10;;;;;;;;;;5062264;28;20474;-80
2023/10/28 13:49:59;;;;;;;3.27;1.30;;;;;;;;;;5062380;28;20846;-81
2023/10/28 13:52:44;;;;;;;1.70;1.00;;;;;;;;;;5056591;28;20833;-80
2023/10/28 13:55:30;;;;;;;3.00;1.30;;;;;;;;;;5067883;28;20842;-81
2023/10/28 13:58:15;;;;;;;1.20;1.00;;;;;;;;;;5059397;28;20783;-80
2023/10/28 14:01:03;;;;;;;2.07;1.20;;;;;;;;;;5058153;28;20445;-81
2023/10/28 14:03:49;;;;;;;2.00;1.07;;;;;;;;;;5060289;28;20792;-81
2023/10/28 14:06:35;;;;;;;1.80;0.83;;;;;;;;;;5061563;28;20834;-81
2023/10/28 14:09:20;;;;;;;2.77;1.10;;;;;;;;;;5063450;28;20834;-81
2023/10/28 14:12:06;;;;;;;2.83;1.37;;;;;;;;;;5061780;28;20459;-79
2023/10/28 14:14:51;;;;;;;1.33;0.83;;;;;;;;;;5064101;28;20938;-81
2023/10/28 14:17:37;;;;;;;1.33;0.90;;;;;;;;;;5041367;28;20812;-81
2023/10/28 14:20:23;;;;;;;1.10;0.90;;;;;;;;;;5057567;28;20440;-81
2023/10/28 14:23:10;;;;;;;2.00;1.10;;;;;;;;;;5054185;28;20914;-81
2023/10/28 14:25:56;;;;;;;1.50;0.93;;;;;;;;;;5063742;28;20818;-80
2023/10/28 14:28:41;;;;;;;3.00;0.90;;;;;;;;;;5061224;28;21183;-80
2023/10/28 14:31:27;;;;;;;1.13;0.87;;;;;;;;;;5060079;28;20920;-80
2023/10/28 14:34:15;;;;;;;2.50;0.80;;;;;;;;;;5046009;28;20807;-81
2023/10/28 14:37:00;;;;;;;1.50;0.90;;;;;;;;;;5039544;28;20428;-81
2023/10/28 14:39:46;;;;;;;1.00;0.90;;;;;;;;;;5065556;28;20913;-81
2023/10/28 14:42:33;;;;;;;2.60;1.37;;;;;;;;;;5067461;28;20468;-79
2023/10/28 14:45:20;;;;;;;1.90;1.10;;;;;;;;;;5059983;28;20453;-79
2023/10/28 14:48:05;;;;;;;1.20;1.10;;;;;;;;;;5056090;28;20830;-80
2023/10/28 14:50:50;;;;;;;2.30;1.40;;;;;;;;;;5067260;28;20867;-78
2023/10/28 14:53:36;;;;;;;2.13;1.20;;;;;;;;;;5047719;28;20817;-79
2023/10/28 14:56:23;;;;;;;1.60;1.30;;;;;;;;;;5062533;28;20948;-81
2023/10/28 14:59:08;;;;;;;2.67;1.33;;;;;;;;;;5059464;28;20467;-79
2023/10/28 15:01:54;;;;;;;1.50;1.30;;;;;;;;;;5063473;28;20445;-80
2023/10/28 15:04:39;;;;;;;1.30;1.20;;;;;;;;;;5063866;28;20949;-81
2023/10/28 15:07:24;;;;;;;1.73;1.20;;;;;;;;;;5061265;28;20829;-81
2023/10/28 15:10:10;;;;;;;4.90;1.17;;;;;;;;;;5062174;28;20798;-79
2023/10/28 15:12:57;;;;;;;1.70;1.40;;;;;;;;;;5056269;28;20442;-78
2023/10/28 15:15:42;;;;;;;1.70;1.50;;;;;;;;;;5057696;28;20889;-79
2023/10/28 15:18:27;;;;;;;1.37;1.27;;;;;;;;;;5057696;28;20791;-79
2023/10/28 15:21:14;;;;;;;2.67;1.43;;;;;;;;;;5059684;28;20807;-80
2023/10/28 15:24:01;;;;;;;1.90;1.20;;;;;;;;;;5058825;28;20843;-80
2023/10/28 15:26:47;;;;;;;1.73;1.33;;;;;;;;;;5055272;28;20865;-77
2023/10/28 15:29:34;;;;;;;1.63;1.00;;;;;;;;;;5057774;28;20963;-80
2023/10/28 15:32:20;;;;;;;1.20;0.93;;;;;;;;;;5050258;28;20860;-80
2023/10/28 15:35:06;;;;;;;2.27;1.20;;;;;;;;;;5060894;28;20961;-79
2023/10/28 15:37:51;;;;;;;1.90;1.33;;;;;;;;;;5059774;28;20421;-78
2023/10/28 15:40:38;;;;;;;2.50;1.70;;;;;;;;;;5057637;28;20808;-78
2023/10/28 15:43:23;;;;;;;1.20;1.10;;;;;;;;;;5057907;28;21204;-81
2023/10/28 15:46:13;;;;;;;1.23;1.13;;;;;;;;;;5063348;28;20950;-80
2023/10/28 15:48:59;;;;;;;1.63;1.13;;;;;;;;;;5056729;28;20441;-80
2023/10/28 15:51:44;;;;;;;1.40;1.20;;;;;;;;;;5062779;28;20799;-79
2023/10/28 15:54:30;;;;;;;3.47;1.10;;;;;;;;;;5062184;28;20449;-81
2023/10/28 15:57:15;;;;;;;3.30;1.70;;;;;;;;;;5074109;28;20470;-80
2023/10/28 16:00:04;;;;;;;2.50;2.30;;;;;;;;;;5062718;28;20849;-79
2023/10/28 16:02:51;;;;;;;1.93;1.70;;;;;;;;;;5062113;28;20437;-79
2023/10/28 16:05:37;;;;;;;2.20;1.30;;;;;;;;;;5063351;28;20451;-80
2023/10/28 16:08:22;;;;;;;2.33;1.27;;;;;;;;;;5044700;28;20464;-81
2023/10/28 16:11:08;;;;;;;3.20;1.80;;;;;;;;;;5055208;28;20848;-82
2023/10/28 16:13:53;;;;;;;1.90;1.70;;;;;;;;;;5064969;28;20474;-81
2023/10/28 16:16:39;;;;;;;1.40;1.30;;;;;;;;;;5059074;28;20585;-82
2023/10/28 16:19:25;;;;;;;2.80;1.60;;;;;;;;;;5053031;28;20861;-81
2023/10/28 16:22:11;;;;;;;2.10;1.80;;;;;;;;;;5048807;28;20858;-81
2023/10/28 16:24:58;;;;;;;3.70;2.30;;;;;;;;;;5052307;28;20456;-81
2023/10/28 16:27:44;;;;;;;2.07;1.70;;;;;;;;;;5059122;28;20811;-80
2023/10/28 16:30:30;;;;;;;2.07;1.20;;;;;;;;;;5060577;28;20822;-80
2023/10/28 16:33:15;;;;;;;1.63;1.40;;;;;;;;;;5059797;28;20439;-81
2023/10/28 16:36:02;;;;;;;2.47;1.80;;;;;;;;;;5038026;28;20462;-81